IDI weather

Public forecast

Using degrees Fahrenheit for public forecast. Weather courtesy of forecast.io.

Current aviation weather report (METAR) for Indiana County/Jimmy Stewart Fld/ Airport

Retrieved 2020/08/12 17:35 UTC (22 minutes ago):

KIDI 121735Z AUTO VRB05G10KT 10SM FEW049 SCT060 30/18 A3013 RMK A01

Closest aviation forecast (TAF) to Indiana County/Jimmy Stewart Fld/ Airport

Closest forecast is John Murtha Johnstown Cambria County Airport, 22.7 nm (42.0 km) SSE. Retrieved 2020/08/12 12:39 UTC (5 hours ago):

TAF KJST 121137Z 1212/1312 VRB02KT 6SM BR SCT010 FM121400 35003KT P6SM FEW050 FM121800 36005KT P6SM VCSH BKN050 FM130000 03004KT P6SM SCT050 FM130600 07004KT P6SM BKN100